Daggett, CA

5:31 PM PDT on May 29, 2015 (GMT -0700)
Barstow-Daggett | | Change Station
CLOSE
Current Station
Airport
Location: Daggett-Barstow,
Elevation: 1926 ft
Nearby Weather Stations

Elev 1926 ft 34.85 °N, 116.79 °W | Updated 41 minutes ago

Clear
Clear
99 °F
Feels Like 99 °F
N
18
Wind Variable Wind from East
Gusts 24 mph

Today
High -- | Low -- °F
--% Chance of Precip.
Yesterday
High -- | Low -- °F
Precip. -- in
5:35 AM 7:53 PM
Waxing Gibbous, 87% visible
Pressure 29.73 in
Visibility 10.0 miles
Clouds Clear
Dew Point 18 °F
Humidity 5%
Rainfall 0.00 in
Snow Depth Not available.
UV 4 out of 12
Pollen 4.00 out of 12
Air Quality Not available.
Flu Activity Sporadic
METAR KDAG 292350Z AUTO 08016G21KT 10SM CLR 37/M08 A2981 RMK AO2 SLP068 T03721078 10383 20306 56019

More Conditions Fewer Conditions

Pressure 29.73 in
Visibility 10.0 miles
Clouds Clear
Dew Point 18 °F
Humidity 5%
Rainfall 0.00 in
Snow Depth Not available.
UV 4 out of 12
Pollen 4.00 out of 12
Air Quality Not available.
Flu Activity Sporadic
METAR KDAG 292350Z AUTO 08016G21KT 10SM CLR 37/M08 A2981 RMK AO2 SLP068 T03721078 10383 20306 56019

More Conditions Fewer Conditions

10-Day Weather Forecast

Almanac

Astronomy

May. 29, 2015 Rise Set
Actual Time
Civil Twilight
Nautical Twilight
Astronomical Twilight
Moon
Length of Visible Light
Length of Day
Tomorrow will be .
, % of the Moon is Illuminated

Today's Extremes

State Highs State Lows

Community

WunderPhotos

Upload Photos

1,825,411 photos uploaded!

WunderBlogs® & News

Nearby

Air Quality

  Air Quality AQ Index Pollutant
Not available.

Snow Depth

Station Depth Elevation

Earthquake Activity

City Distance Mag. Time & Date
Minimum magnitude displayed is 2.5.

Coastal Water Temperatures

Place Temperature

Stations

Nearby Weather Stations

Station Location Temp. Windchill Dew Point Humidity Wind Precip. Elev Updated Type